sensor_id;sensor_type;location;lat;lon;timestamp;temperature;humidity
75430;DHT22;64127;51.488;5.462;2022-10-19T00:00:42;14.40;90.20
75430;DHT22;64127;51.488;5.462;2022-10-19T00:03:14;14.30;90.10
75430;DHT22;64127;51.488;5.462;2022-10-19T00:05:53;14.30;90.10
75430;DHT22;64127;51.488;5.462;2022-10-19T00:08:26;14.30;90.10
75430;DHT22;64127;51.488;5.462;2022-10-19T00:11:00;14.20;90.00
75430;DHT22;64127;51.488;5.462;2022-10-19T00:13:32;14.20;90.00
75430;DHT22;64127;51.488;5.462;2022-10-19T00:16:09;14.20;90.00
75430;DHT22;64127;51.488;5.462;2022-10-19T00:18:43;14.10;90.00
75430;DHT22;64127;51.488;5.462;2022-10-19T00:21:17;14.10;90.00
75430;DHT22;64127;51.488;5.462;2022-10-19T00:23:50;14.10;90.10
75430;DHT22;64127;51.488;5.462;2022-10-19T00:26:22;14.10;90.10
75430;DHT22;64127;51.488;5.462;2022-10-19T00:28:55;14.10;90.10
75430;DHT22;64127;51.488;5.462;2022-10-19T00:31:27;14.00;90.10
75430;DHT22;64127;51.488;5.462;2022-10-19T00:33:59;14.00;90.20
75430;DHT22;64127;51.488;5.462;2022-10-19T00:36:36;14.00;90.20
75430;DHT22;64127;51.488;5.462;2022-10-19T00:39:12;14.00;90.30
75430;DHT22;64127;51.488;5.462;2022-10-19T00:41:46;14.00;90.40
75430;DHT22;64127;51.488;5.462;2022-10-19T00:46:50;13.90;90.40
75430;DHT22;64127;51.488;5.462;2022-10-19T00:49:33;13.90;90.50
75430;DHT22;64127;51.488;5.462;2022-10-19T00:52:13;13.90;90.60
75430;DHT22;64127;51.488;5.462;2022-10-19T00:54:49;13.90;90.60
75430;DHT22;64127;51.488;5.462;2022-10-19T00:57:26;13.80;90.70
75430;DHT22;64127;51.488;5.462;2022-10-19T01:00:01;13.80;90.80
75430;DHT22;64127;51.488;5.462;2022-10-19T01:02:35;13.80;90.80
75430;DHT22;64127;51.488;5.462;2022-10-19T01:05:08;13.80;90.90
75430;DHT22;64127;51.488;5.462;2022-10-19T01:07:42;13.80;91.00
75430;DHT22;64127;51.488;5.462;2022-10-19T01:10:14;13.80;91.20
75430;DHT22;64127;51.488;5.462;2022-10-19T01:13:05;13.80;91.20
75430;DHT22;64127;51.488;5.462;2022-10-19T01:16:05;13.80;91.20
75430;DHT22;64127;51.488;5.462;2022-10-19T01:19:03;13.80;91.30
75430;DHT22;64127;51.488;5.462;2022-10-19T01:21:44;13.80;91.40
75430;DHT22;64127;51.488;5.462;2022-10-19T01:24:44;13.80;91.40
75430;DHT22;64127;51.488;5.462;2022-10-19T01:27:52;13.70;91.50
75430;DHT22;64127;51.488;5.462;2022-10-19T01:30:41;13.70;91.50
75430;DHT22;64127;51.488;5.462;2022-10-19T01:39:17;13.70;91.60
75430;DHT22;64127;51.488;5.462;2022-10-19T01:44:53;13.60;91.50
75430;DHT22;64127;51.488;5.462;2022-10-19T01:47:41;13.60;91.50
75430;DHT22;64127;51.488;5.462;2022-10-19T01:50:30;13.60;91.50
75430;DHT22;64127;51.488;5.462;2022-10-19T01:53:17;13.60;91.50
75430;DHT22;64127;51.488;5.462;2022-10-19T01:55:52;13.50;91.50
75430;DHT22;64127;51.488;5.462;2022-10-19T01:58:28;13.50;91.50
75430;DHT22;64127;51.488;5.462;2022-10-19T02:01:06;13.50;91.50
75430;DHT22;64127;51.488;5.462;2022-10-19T02:03:45;13.50;91.50
75430;DHT22;64127;51.488;5.462;2022-10-19T02:06:19;13.50;91.60
75430;DHT22;64127;51.488;5.462;2022-10-19T02:08:52;13.40;91.60
75430;DHT22;64127;51.488;5.462;2022-10-19T02:11:25;13.40;91.60
75430;DHT22;64127;51.488;5.462;2022-10-19T02:14:08;13.40;91.70
75430;DHT22;64127;51.488;5.462;2022-10-19T02:16:51;13.40;91.80
75430;DHT22;64127;51.488;5.462;2022-10-19T02:19:29;13.40;91.80
75430;DHT22;64127;51.488;5.462;2022-10-19T02:22:02;13.30;91.70
75430;DHT22;64127;51.488;5.462;2022-10-19T02:24:34;13.30;91.70
75430;DHT22;64127;51.488;5.462;2022-10-19T02:27:07;13.30;91.70
75430;DHT22;64127;51.488;5.462;2022-10-19T02:29:40;13.20;91.70
75430;DHT22;64127;51.488;5.462;2022-10-19T02:32:12;13.20;91.70
75430;DHT22;64127;51.488;5.462;2022-10-19T02:34:44;13.20;91.70
75430;DHT22;64127;51.488;5.462;2022-10-19T02:37:16;13.20;91.70
75430;DHT22;64127;51.488;5.462;2022-10-19T02:39:53;13.20;91.70
75430;DHT22;64127;51.488;5.462;2022-10-19T02:42:34;13.10;91.70
75430;DHT22;64127;51.488;5.462;2022-10-19T02:45:17;13.10;91.60
75430;DHT22;64127;51.488;5.462;2022-10-19T02:47:58;13.10;91.60
75430;DHT22;64127;51.488;5.462;2022-10-19T02:50:37;13.10;91.60
75430;DHT22;64127;51.488;5.462;2022-10-19T02:53:15;13.00;91.60
75430;DHT22;64127;51.488;5.462;2022-10-19T02:55:48;13.00;91.60
75430;DHT22;64127;51.488;5.462;2022-10-19T02:58:20;13.00;91.70
75430;DHT22;64127;51.488;5.462;2022-10-19T03:00:52;13.00;91.80
75430;DHT22;64127;51.488;5.462;2022-10-19T03:03:25;12.90;91.90
75430;DHT22;64127;51.488;5.462;2022-10-19T03:05:57;12.90;91.90
75430;DHT22;64127;51.488;5.462;2022-10-19T03:08:29;12.90;92.00
75430;DHT22;64127;51.488;5.462;2022-10-19T03:11:01;12.90;92.00
75430;DHT22;64127;51.488;5.462;2022-10-19T03:13:33;12.90;92.00
75430;DHT22;64127;51.488;5.462;2022-10-19T03:16:09;12.80;92.00
75430;DHT22;64127;51.488;5.462;2022-10-19T03:18:43;12.80;92.00
75430;DHT22;64127;51.488;5.462;2022-10-19T03:21:15;12.80;92.10
75430;DHT22;64127;51.488;5.462;2022-10-19T03:23:48;12.80;92.10
75430;DHT22;64127;51.488;5.462;2022-10-19T03:26:20;12.80;92.10
75430;DHT22;64127;51.488;5.462;2022-10-19T03:28:52;12.70;92.10
75430;DHT22;64127;51.488;5.462;2022-10-19T03:31:24;12.70;92.50
75430;DHT22;64127;51.488;5.462;2022-10-19T03:33:57;12.70;92.10
75430;DHT22;64127;51.488;5.462;2022-10-19T03:36:34;12.70;92.10
75430;DHT22;64127;51.488;5.462;2022-10-19T03:39:11;12.70;92.10
75430;DHT22;64127;51.488;5.462;2022-10-19T03:41:45;12.70;92.10
75430;DHT22;64127;51.488;5.462;2022-10-19T03:44:17;12.70;92.10
75430;DHT22;64127;51.488;5.462;2022-10-19T03:46:49;12.60;92.00
75430;DHT22;64127;51.488;5.462;2022-10-19T03:49:21;12.60;92.00
75430;DHT22;64127;51.488;5.462;2022-10-19T03:51:52;12.60;92.00
75430;DHT22;64127;51.488;5.462;2022-10-19T03:54:24;12.60;92.00
75430;DHT22;64127;51.488;5.462;2022-10-19T03:56:58;12.50;92.00
75430;DHT22;64127;51.488;5.462;2022-10-19T03:59:30;12.50;92.30
75430;DHT22;64127;51.488;5.462;2022-10-19T04:02:02;12.50;92.00
75430;DHT22;64127;51.488;5.462;2022-10-19T04:04:34;12.50;92.10
75430;DHT22;64127;51.488;5.462;2022-10-19T04:07:06;12.50;92.10
75430;DHT22;64127;51.488;5.462;2022-10-19T04:09:38;12.40;92.10
75430;DHT22;64127;51.488;5.462;2022-10-19T04:12:10;12.40;92.10
75430;DHT22;64127;51.488;5.462;2022-10-19T04:14:42;12.40;92.10
75430;DHT22;64127;51.488;5.462;2022-10-19T04:17:28;12.40;92.10
75430;DHT22;64127;51.488;5.462;2022-10-19T04:20:00;12.30;92.00
75430;DHT22;64127;51.488;5.462;2022-10-19T04:22:32;12.30;92.00
75430;DHT22;64127;51.488;5.462;2022-10-19T04:25:04;12.30;92.00
75430;DHT22;64127;51.488;5.462;2022-10-19T04:27:37;12.30;92.10
75430;DHT22;64127;51.488;5.462;2022-10-19T04:30:09;12.30;92.10
75430;DHT22;64127;51.488;5.462;2022-10-19T04:32:41;12.20;92.10
75430;DHT22;64127;51.488;5.462;2022-10-19T04:35:13;12.20;92.20
75430;DHT22;64127;51.488;5.462;2022-10-19T04:37:45;12.20;92.20
75430;DHT22;64127;51.488;5.462;2022-10-19T04:40:17;12.20;92.20
75430;DHT22;64127;51.488;5.462;2022-10-19T04:42:49;12.20;92.30
75430;DHT22;64127;51.488;5.462;2022-10-19T04:45:21;12.20;92.40
75430;DHT22;64127;51.488;5.462;2022-10-19T04:47:53;12.20;92.50
75430;DHT22;64127;51.488;5.462;2022-10-19T04:50:27;12.20;92.50
75430;DHT22;64127;51.488;5.462;2022-10-19T04:52:59;12.20;92.60
75430;DHT22;64127;51.488;5.462;2022-10-19T04:55:31;12.20;92.80
75430;DHT22;64127;51.488;5.462;2022-10-19T04:58:02;12.20;92.80
75430;DHT22;64127;51.488;5.462;2022-10-19T05:00:37;12.20;92.80
75430;DHT22;64127;51.488;5.462;2022-10-19T05:03:09;12.20;92.90
75430;DHT22;64127;51.488;5.462;2022-10-19T05:05:41;12.20;93.00
75430;DHT22;64127;51.488;5.462;2022-10-19T05:08:13;12.20;93.10
75430;DHT22;64127;51.488;5.462;2022-10-19T05:10:45;12.20;93.20
75430;DHT22;64127;51.488;5.462;2022-10-19T05:13:18;12.20;93.10
75430;DHT22;64127;51.488;5.462;2022-10-19T05:15:57;12.20;93.10
75430;DHT22;64127;51.488;5.462;2022-10-19T05:18:31;12.20;93.10
75430;DHT22;64127;51.488;5.462;2022-10-19T05:21:12;12.10;93.00
75430;DHT22;64127;51.488;5.462;2022-10-19T05:23:44;12.10;93.00
75430;DHT22;64127;51.488;5.462;2022-10-19T05:26:18;12.10;93.00
75430;DHT22;64127;51.488;5.462;2022-10-19T05:28:53;12.10;93.00
75430;DHT22;64127;51.488;5.462;2022-10-19T05:31:33;12.10;93.00
75430;DHT22;64127;51.488;5.462;2022-10-19T05:34:05;12.10;93.00
75430;DHT22;64127;51.488;5.462;2022-10-19T05:36:39;12.10;93.10
75430;DHT22;64127;51.488;5.462;2022-10-19T05:39:16;12.00;93.20
75430;DHT22;64127;51.488;5.462;2022-10-19T05:41:48;12.00;93.30
75430;DHT22;64127;51.488;5.462;2022-10-19T05:44:22;12.00;93.30
75430;DHT22;64127;51.488;5.462;2022-10-19T05:46:54;12.00;93.50
75430;DHT22;64127;51.488;5.462;2022-10-19T05:49:26;12.00;93.60
75430;DHT22;64127;51.488;5.462;2022-10-19T05:51:58;12.00;93.70
75430;DHT22;64127;51.488;5.462;2022-10-19T05:54:30;12.00;93.70
75430;DHT22;64127;51.488;5.462;2022-10-19T05:57:02;12.00;93.70
75430;DHT22;64127;51.488;5.462;2022-10-19T05:59:34;12.00;93.70
75430;DHT22;64127;51.488;5.462;2022-10-19T06:02:13;12.00;93.80
75430;DHT22;64127;51.488;5.462;2022-10-19T06:04:45;12.00;93.90
75430;DHT22;64127;51.488;5.462;2022-10-19T06:07:17;12.00;94.00
75430;DHT22;64127;51.488;5.462;2022-10-19T06:09:49;12.00;94.10
75430;DHT22;64127;51.488;5.462;2022-10-19T06:12:20;11.90;94.20
75430;DHT22;64127;51.488;5.462;2022-10-19T06:14:55;11.90;94.30
75430;DHT22;64127;51.488;5.462;2022-10-19T06:17:28;11.90;94.70
75430;DHT22;64127;51.488;5.462;2022-10-19T06:20:00;11.90;94.40
75430;DHT22;64127;51.488;5.462;2022-10-19T06:22:32;11.90;94.50
75430;DHT22;64127;51.488;5.462;2022-10-19T06:25:04;11.90;94.70
75430;DHT22;64127;51.488;5.462;2022-10-19T06:27:36;11.90;94.80
75430;DHT22;64127;51.488;5.462;2022-10-19T06:30:09;11.90;94.80
75430;DHT22;64127;51.488;5.462;2022-10-19T06:32:41;11.80;94.80
75430;DHT22;64127;51.488;5.462;2022-10-19T06:35:13;11.90;94.90
75430;DHT22;64127;51.488;5.462;2022-10-19T06:37:46;11.80;94.90
75430;DHT22;64127;51.488;5.462;2022-10-19T06:40:18;11.80;94.90
75430;DHT22;64127;51.488;5.462;2022-10-19T06:42:50;11.80;95.00
75430;DHT22;64127;51.488;5.462;2022-10-19T06:45:23;11.80;95.10
75430;DHT22;64127;51.488;5.462;2022-10-19T06:47:55;11.80;95.20
75430;DHT22;64127;51.488;5.462;2022-10-19T06:50:26;11.80;95.30
75430;DHT22;64127;51.488;5.462;2022-10-19T06:52:58;11.80;95.40
75430;DHT22;64127;51.488;5.462;2022-10-19T06:55:30;11.80;95.40
75430;DHT22;64127;51.488;5.462;2022-10-19T06:58:02;11.90;95.50
75430;DHT22;64127;51.488;5.462;2022-10-19T07:00:35;11.90;95.50
75430;DHT22;64127;51.488;5.462;2022-10-19T07:03:07;11.90;95.60
75430;DHT22;64127;51.488;5.462;2022-10-19T07:05:39;12.00;95.60
75430;DHT22;64127;51.488;5.462;2022-10-19T07:08:10;12.00;95.60
75430;DHT22;64127;51.488;5.462;2022-10-19T07:10:42;12.00;95.70
75430;DHT22;64127;51.488;5.462;2022-10-19T07:13:14;12.10;95.80
75430;DHT22;64127;51.488;5.462;2022-10-19T07:15:46;12.10;95.80
75430;DHT22;64127;51.488;5.462;2022-10-19T07:18:19;12.10;95.90
75430;DHT22;64127;51.488;5.462;2022-10-19T07:20:58;12.10;96.00
75430;DHT22;64127;51.488;5.462;2022-10-19T07:23:33;12.10;96.10
75430;DHT22;64127;51.488;5.462;2022-10-19T07:26:09;12.10;96.20
75430;DHT22;64127;51.488;5.462;2022-10-19T07:28:45;12.20;96.30
75430;DHT22;64127;51.488;5.462;2022-10-19T07:31:21;12.30;96.40
75430;DHT22;64127;51.488;5.462;2022-10-19T07:34:01;12.40;96.50
75430;DHT22;64127;51.488;5.462;2022-10-19T07:36:34;12.50;96.50
75430;DHT22;64127;51.488;5.462;2022-10-19T07:39:07;12.60;96.60
75430;DHT22;64127;51.488;5.462;2022-10-19T07:41:41;12.80;96.70
75430;DHT22;64127;51.488;5.462;2022-10-19T07:44:14;12.80;96.70
75430;DHT22;64127;51.488;5.462;2022-10-19T07:46:46;12.90;96.70
75430;DHT22;64127;51.488;5.462;2022-10-19T07:49:18;13.00;96.80
75430;DHT22;64127;51.488;5.462;2022-10-19T07:51:51;13.00;96.80
75430;DHT22;64127;51.488;5.462;2022-10-19T07:54:24;13.20;96.90
75430;DHT22;64127;51.488;5.462;2022-10-19T07:56:57;13.30;96.90
75430;DHT22;64127;51.488;5.462;2022-10-19T07:59:29;13.30;96.90
75430;DHT22;64127;51.488;5.462;2022-10-19T08:02:01;13.40;96.90
75430;DHT22;64127;51.488;5.462;2022-10-19T08:04:35;13.50;97.00
75430;DHT22;64127;51.488;5.462;2022-10-19T08:07:32;13.60;97.00
75430;DHT22;64127;51.488;5.462;2022-10-19T08:10:05;13.70;97.00
75430;DHT22;64127;51.488;5.462;2022-10-19T08:12:37;13.80;97.00
75430;DHT22;64127;51.488;5.462;2022-10-19T08:15:09;13.80;97.00
75430;DHT22;64127;51.488;5.462;2022-10-19T08:17:41;14.00;97.10
75430;DHT22;64127;51.488;5.462;2022-10-19T08:20:13;14.20;97.10
75430;DHT22;64127;51.488;5.462;2022-10-19T08:22:45;14.30;97.10
75430;DHT22;64127;51.488;5.462;2022-10-19T08:25:17;14.40;97.10
75430;DHT22;64127;51.488;5.462;2022-10-19T08:27:49;14.50;97.00
75430;DHT22;64127;51.488;5.462;2022-10-19T08:30:21;14.60;97.00
75430;DHT22;64127;51.488;5.462;2022-10-19T08:32:53;14.70;97.00
75430;DHT22;64127;51.488;5.462;2022-10-19T08:35:25;14.80;97.00
75430;DHT22;64127;51.488;5.462;2022-10-19T08:37:57;14.80;97.00
75430;DHT22;64127;51.488;5.462;2022-10-19T08:40:30;14.90;97.00
75430;DHT22;64127;51.488;5.462;2022-10-19T08:43:12;14.90;97.00
75430;DHT22;64127;51.488;5.462;2022-10-19T08:49:04;15.10;97.00
75430;DHT22;64127;51.488;5.462;2022-10-19T08:51:42;15.10;96.90
75430;DHT22;64127;51.488;5.462;2022-10-19T08:54:18;15.20;97.00
75430;DHT22;64127;51.488;5.462;2022-10-19T08:57:21;15.20;96.90
75430;DHT22;64127;51.488;5.462;2022-10-19T09:03:40;15.30;96.80
75430;DHT22;64127;51.488;5.462;2022-10-19T09:09:37;15.60;96.80
75430;DHT22;64127;51.488;5.462;2022-10-19T09:12:18;15.60;96.80
75430;DHT22;64127;51.488;5.462;2022-10-19T09:14:56;15.70;96.70
75430;DHT22;64127;51.488;5.462;2022-10-19T09:17:32;15.80;96.70
75430;DHT22;64127;51.488;5.462;2022-10-19T09:20:25;15.90;96.60
75430;DHT22;64127;51.488;5.462;2022-10-19T09:23:35;16.00;96.50
75430;DHT22;64127;51.488;5.462;2022-10-19T09:26:18;16.10;96.50
75430;DHT22;64127;51.488;5.462;2022-10-19T09:29:20;16.10;96.40
75430;DHT22;64127;51.488;5.462;2022-10-19T09:32:00;16.10;96.10
75430;DHT22;64127;51.488;5.462;2022-10-19T09:34:43;16.10;96.10
75430;DHT22;64127;51.488;5.462;2022-10-19T09:37:20;16.10;96.10
75430;DHT22;64127;51.488;5.462;2022-10-19T09:39:57;16.10;96.00
75430;DHT22;64127;51.488;5.462;2022-10-19T09:42:31;16.20;96.00
75430;DHT22;64127;51.488;5.462;2022-10-19T09:45:15;16.30;96.00
75430;DHT22;64127;51.488;5.462;2022-10-19T09:47:56;16.40;95.90
75430;DHT22;64127;51.488;5.462;2022-10-19T09:50:56;16.50;95.80
75430;DHT22;64127;51.488;5.462;2022-10-19T09:53:30;16.60;95.60
75430;DHT22;64127;51.488;5.462;2022-10-19T09:56:05;16.60;95.40
75430;DHT22;64127;51.488;5.462;2022-10-19T09:58:46;16.60;95.20
75430;DHT22;64127;51.488;5.462;2022-10-19T10:01:37;16.70;95.00
75430;DHT22;64127;51.488;5.462;2022-10-19T10:04:16;16.70;94.90
75430;DHT22;64127;51.488;5.462;2022-10-19T10:06:48;16.80;94.80
75430;DHT22;64127;51.488;5.462;2022-10-19T10:09:23;16.70;95.00
75430;DHT22;64127;51.488;5.462;2022-10-19T10:11:59;16.80;94.50
75430;DHT22;64127;51.488;5.462;2022-10-19T10:14:35;16.80;94.40
75430;DHT22;64127;51.488;5.462;2022-10-19T10:17:17;16.90;94.40
75430;DHT22;64127;51.488;5.462;2022-10-19T10:22:33;17.00;94.20
75430;DHT22;64127;51.488;5.462;2022-10-19T10:25:15;17.00;94.10
75430;DHT22;64127;51.488;5.462;2022-10-19T10:28:01;17.00;94.00
75430;DHT22;64127;51.488;5.462;2022-10-19T10:30:48;17.00;93.90
75430;DHT22;64127;51.488;5.462;2022-10-19T10:33:27;17.10;93.90
75430;DHT22;64127;51.488;5.462;2022-10-19T10:36:15;17.10;94.10
75430;DHT22;64127;51.488;5.462;2022-10-19T10:38:52;17.20;93.70
75430;DHT22;64127;51.488;5.462;2022-10-19T10:41:39;17.30;93.60
75430;DHT22;64127;51.488;5.462;2022-10-19T10:44:31;17.40;93.50
75430;DHT22;64127;51.488;5.462;2022-10-19T10:47:12;17.40;93.50
75430;DHT22;64127;51.488;5.462;2022-10-19T10:50:03;17.60;93.50
75430;DHT22;64127;51.488;5.462;2022-10-19T10:52:55;17.60;93.10
75430;DHT22;64127;51.488;5.462;2022-10-19T10:55:30;17.60;93.10
75430;DHT22;64127;51.488;5.462;2022-10-19T10:58:17;17.60;93.00
75430;DHT22;64127;51.488;5.462;2022-10-19T11:01:04;17.60;93.10
75430;DHT22;64127;51.488;5.462;2022-10-19T11:03:52;17.60;92.60
75430;DHT22;64127;51.488;5.462;2022-10-19T11:06:30;17.70;92.80
75430;DHT22;64127;51.488;5.462;2022-10-19T11:12:04;18.00;92.10
75430;DHT22;64127;51.488;5.462;2022-10-19T11:14:50;18.20;92.20
75430;DHT22;64127;51.488;5.462;2022-10-19T11:17:36;18.30;92.10
75430;DHT22;64127;51.488;5.462;2022-10-19T11:20:14;18.40;91.90
75430;DHT22;64127;51.488;5.462;2022-10-19T11:32:56;18.40;91.50
75430;DHT22;64127;51.488;5.462;2022-10-19T11:35:45;18.50;91.60
75430;DHT22;64127;51.488;5.462;2022-10-19T11:45:15;18.70;91.20
75430;DHT22;64127;51.488;5.462;2022-10-19T11:48:29;18.60;91.10
75430;DHT22;64127;51.488;5.462;2022-10-19T11:57:06;18.50;91.10
75430;DHT22;64127;51.488;5.462;2022-10-19T12:03:24;18.40;91.00
75430;DHT22;64127;51.488;5.462;2022-10-19T12:12:08;18.30;91.00
75430;DHT22;64127;51.488;5.462;2022-10-19T12:17:58;18.30;91.00
75430;DHT22;64127;51.488;5.462;2022-10-19T12:20:50;18.30;91.00
75430;DHT22;64127;51.488;5.462;2022-10-19T12:23:34;18.40;90.80
75430;DHT22;64127;51.488;5.462;2022-10-19T12:26:14;18.40;90.80
75430;DHT22;64127;51.488;5.462;2022-10-19T12:29:05;18.60;90.60
75430;DHT22;64127;51.488;5.462;2022-10-19T12:31:43;18.80;90.40
75430;DHT22;64127;51.488;5.462;2022-10-19T12:37:26;19.40;89.90
75430;DHT22;64127;51.488;5.462;2022-10-19T12:40:24;19.60;89.50
75430;DHT22;64127;51.488;5.462;2022-10-19T12:43:15;19.80;88.50
75430;DHT22;64127;51.488;5.462;2022-10-19T12:46:48;19.90;88.40
75430;DHT22;64127;51.488;5.462;2022-10-19T12:51:58;20.30;87.00
75430;DHT22;64127;51.488;5.462;2022-10-19T12:54:34;20.40;86.90
75430;DHT22;64127;51.488;5.462;2022-10-19T12:57:38;20.50;86.00
75430;DHT22;64127;51.488;5.462;2022-10-19T13:00:21;20.50;84.90
75430;DHT22;64127;51.488;5.462;2022-10-19T13:05:35;20.40;84.80
75430;DHT22;64127;51.488;5.462;2022-10-19T13:08:07;20.40;84.70
75430;DHT22;64127;51.488;5.462;2022-10-19T13:11:06;20.40;84.10
75430;DHT22;64127;51.488;5.462;2022-10-19T13:14:06;20.40;83.70
75430;DHT22;64127;51.488;5.462;2022-10-19T13:25:40;20.10;83.30
75430;DHT22;64127;51.488;5.462;2022-10-19T13:36:09;20.10;83.30
75430;DHT22;64127;51.488;5.462;2022-10-19T13:44:22;20.00;82.70
75430;DHT22;64127;51.488;5.462;2022-10-19T14:11:47;19.20;83.80
75430;DHT22;64127;51.488;5.462;2022-10-19T14:14:27;19.30;84.30
75430;DHT22;64127;51.488;5.462;2022-10-19T14:17:01;19.40;84.00
75430;DHT22;64127;51.488;5.462;2022-10-19T14:19:44;19.60;83.90
75430;DHT22;64127;51.488;5.462;2022-10-19T14:27:45;19.90;83.60
75430;DHT22;64127;51.488;5.462;2022-10-19T14:30:24;20.10;83.30
75430;DHT22;64127;51.488;5.462;2022-10-19T14:32:58;20.40;83.20
75430;DHT22;64127;51.488;5.462;2022-10-19T14:35:36;20.60;82.50
75430;DHT22;64127;51.488;5.462;2022-10-19T14:38:19;20.80;81.90
75430;DHT22;64127;51.488;5.462;2022-10-19T14:40:57;21.00;81.60
75430;DHT22;64127;51.488;5.462;2022-10-19T14:43:31;21.30;80.90
75430;DHT22;64127;51.488;5.462;2022-10-19T14:46:08;21.50;80.20
75430;DHT22;64127;51.488;5.462;2022-10-19T14:48:47;21.50;79.30
75430;DHT22;64127;51.488;5.462;2022-10-19T14:51:27;21.60;79.40
75430;DHT22;64127;51.488;5.462;2022-10-19T14:54:02;21.70;79.10
75430;DHT22;64127;51.488;5.462;2022-10-19T14:57:07;21.70;78.40
75430;DHT22;64127;51.488;5.462;2022-10-19T14:59:46;21.60;78.10
75430;DHT22;64127;51.488;5.462;2022-10-19T15:05:22;21.70;77.60
75430;DHT22;64127;51.488;5.462;2022-10-19T15:07:56;21.60;77.10
75430;DHT22;64127;51.488;5.462;2022-10-19T15:10:39;21.40;77.10
75430;DHT22;64127;51.488;5.462;2022-10-19T15:13:32;21.20;77.10
75430;DHT22;64127;51.488;5.462;2022-10-19T15:16:39;21.00;76.90
75430;DHT22;64127;51.488;5.462;2022-10-19T15:19:22;20.80;77.00
75430;DHT22;64127;51.488;5.462;2022-10-19T15:22:18;20.50;77.20
75430;DHT22;64127;51.488;5.462;2022-10-19T15:25:01;20.20;77.40
75430;DHT22;64127;51.488;5.462;2022-10-19T15:27:53;20.10;77.80
75430;DHT22;64127;51.488;5.462;2022-10-19T15:30:30;19.80;77.80
75430;DHT22;64127;51.488;5.462;2022-10-19T15:35:37;19.50;78.50
75430;DHT22;64127;51.488;5.462;2022-10-19T15:38:22;19.40;78.80
75430;DHT22;64127;51.488;5.462;2022-10-19T15:40:57;19.30;79.20
75430;DHT22;64127;51.488;5.462;2022-10-19T15:43:35;19.30;79.70
75430;DHT22;64127;51.488;5.462;2022-10-19T15:52:21;19.20;80.60
75430;DHT22;64127;51.488;5.462;2022-10-19T15:54:56;19.10;80.70
75430;DHT22;64127;51.488;5.462;2022-10-19T15:57:36;19.00;81.70
75430;DHT22;64127;51.488;5.462;2022-10-19T16:00:13;18.90;81.10
75430;DHT22;64127;51.488;5.462;2022-10-19T16:02:47;18.70;81.30
75430;DHT22;64127;51.488;5.462;2022-10-19T16:05:19;18.60;81.70
75430;DHT22;64127;51.488;5.462;2022-10-19T16:07:51;18.50;81.60
75430;DHT22;64127;51.488;5.462;2022-10-19T16:10:25;18.40;82.00
75430;DHT22;64127;51.488;5.462;2022-10-19T16:12:57;18.30;82.10
75430;DHT22;64127;51.488;5.462;2022-10-19T16:15:29;18.20;82.30
75430;DHT22;64127;51.488;5.462;2022-10-19T16:18:04;18.20;82.50
75430;DHT22;64127;51.488;5.462;2022-10-19T16:20:36;18.10;82.80
75430;DHT22;64127;51.488;5.462;2022-10-19T16:23:09;18.00;83.00
75430;DHT22;64127;51.488;5.462;2022-10-19T16:25:43;17.90;83.20
75430;DHT22;64127;51.488;5.462;2022-10-19T16:28:16;17.90;83.50
75430;DHT22;64127;51.488;5.462;2022-10-19T16:30:52;17.80;83.60
75430;DHT22;64127;51.488;5.462;2022-10-19T16:33:25;17.80;83.70
75430;DHT22;64127;51.488;5.462;2022-10-19T16:35:57;17.70;83.70
75430;DHT22;64127;51.488;5.462;2022-10-19T16:38:28;17.70;84.00
75430;DHT22;64127;51.488;5.462;2022-10-19T16:41:02;17.60;84.20
75430;DHT22;64127;51.488;5.462;2022-10-19T16:43:36;17.50;84.30
75430;DHT22;64127;51.488;5.462;2022-10-19T16:46:08;17.50;84.50
75430;DHT22;64127;51.488;5.462;2022-10-19T16:48:40;17.40;84.60
75430;DHT22;64127;51.488;5.462;2022-10-19T16:51:24;17.30;85.10
75430;DHT22;64127;51.488;5.462;2022-10-19T16:53:59;17.30;85.20
75430;DHT22;64127;51.488;5.462;2022-10-19T16:56:32;17.20;85.30
75430;DHT22;64127;51.488;5.462;2022-10-19T16:59:05;17.10;85.30
75430;DHT22;64127;51.488;5.462;2022-10-19T17:01:37;17.10;85.50
75430;DHT22;64127;51.488;5.462;2022-10-19T17:04:13;17.10;85.60
75430;DHT22;64127;51.488;5.462;2022-10-19T17:06:47;17.00;85.50
75430;DHT22;64127;51.488;5.462;2022-10-19T17:09:19;17.10;85.60
75430;DHT22;64127;51.488;5.462;2022-10-19T17:12:12;17.00;85.80
75430;DHT22;64127;51.488;5.462;2022-10-19T17:14:44;17.00;86.10
75430;DHT22;64127;51.488;5.462;2022-10-19T17:17:16;16.90;86.20
75430;DHT22;64127;51.488;5.462;2022-10-19T17:19:48;16.90;86.50
75430;DHT22;64127;51.488;5.462;2022-10-19T17:22:20;16.80;86.50
75430;DHT22;64127;51.488;5.462;2022-10-19T17:24:52;16.80;86.60
75430;DHT22;64127;51.488;5.462;2022-10-19T17:27:25;16.80;86.80
75430;DHT22;64127;51.488;5.462;2022-10-19T17:30:02;16.80;87.00
75430;DHT22;64127;51.488;5.462;2022-10-19T17:32:35;16.70;87.10
75430;DHT22;64127;51.488;5.462;2022-10-19T17:35:07;16.70;87.40
75430;DHT22;64127;51.488;5.462;2022-10-19T17:37:39;16.60;87.50
75430;DHT22;64127;51.488;5.462;2022-10-19T17:40:11;16.60;87.70
75430;DHT22;64127;51.488;5.462;2022-10-19T17:42:43;16.50;87.90
75430;DHT22;64127;51.488;5.462;2022-10-19T17:45:15;16.50;88.10
75430;DHT22;64127;51.488;5.462;2022-10-19T17:47:47;16.50;88.30
75430;DHT22;64127;51.488;5.462;2022-10-19T17:50:19;16.40;88.40
75430;DHT22;64127;51.488;5.462;2022-10-19T17:52:51;16.40;88.60
75430;DHT22;64127;51.488;5.462;2022-10-19T17:55:23;16.30;88.60
75430;DHT22;64127;51.488;5.462;2022-10-19T17:57:57;16.30;88.80
75430;DHT22;64127;51.488;5.462;2022-10-19T18:00:29;16.30;88.90
75430;DHT22;64127;51.488;5.462;2022-10-19T18:03:02;16.30;89.00
75430;DHT22;64127;51.488;5.462;2022-10-19T18:05:34;16.30;89.20
75430;DHT22;64127;51.488;5.462;2022-10-19T18:08:06;16.20;89.20
75430;DHT22;64127;51.488;5.462;2022-10-19T18:10:38;16.20;89.20
75430;DHT22;64127;51.488;5.462;2022-10-19T18:13:10;16.20;89.40
75430;DHT22;64127;51.488;5.462;2022-10-19T18:15:42;16.20;89.50
75430;DHT22;64127;51.488;5.462;2022-10-19T18:18:14;16.20;89.60
75430;DHT22;64127;51.488;5.462;2022-10-19T18:20:46;16.20;89.80
75430;DHT22;64127;51.488;5.462;2022-10-19T18:23:18;16.10;89.80
75430;DHT22;64127;51.488;5.462;2022-10-19T18:25:50;16.10;89.80
75430;DHT22;64127;51.488;5.462;2022-10-19T18:28:24;16.00;89.70
75430;DHT22;64127;51.488;5.462;2022-10-19T18:31:10;16.00;89.80
75430;DHT22;64127;51.488;5.462;2022-10-19T18:33:46;16.00;89.80
75430;DHT22;64127;51.488;5.462;2022-10-19T18:36:19;16.10;89.90
75430;DHT22;64127;51.488;5.462;2022-10-19T18:38:54;16.00;89.80
75430;DHT22;64127;51.488;5.462;2022-10-19T18:41:27;16.00;90.00
75430;DHT22;64127;51.488;5.462;2022-10-19T18:44:02;16.00;90.10
75430;DHT22;64127;51.488;5.462;2022-10-19T18:46:36;15.90;90.10